createdAt,value
2023-01-10T00:00:34.486Z,6.42
2023-01-10T00:01:34.771Z,6.41
2023-01-10T00:02:35.022Z,6.42
2023-01-10T00:03:35.265Z,6.45
2023-01-10T00:04:35.672Z,6.41
2023-01-10T00:05:35.806Z,6.47
2023-01-10T00:06:36.165Z,6.45
2023-01-10T00:07:36.407Z,6.41
2023-01-10T00:08:36.713Z,6.41
2023-01-10T00:09:36.992Z,6.45
2023-01-10T00:10:37.293Z,6.45
2023-01-10T00:11:37.586Z,6.45
2023-01-10T00:12:37.825Z,6.42
2023-01-10T00:13:38.160Z,6.45
2023-01-10T00:14:38.453Z,6.42
2023-01-10T00:15:38.747Z,6.45
2023-01-10T00:16:39.026Z,6.45
2023-01-10T00:17:39.336Z,6.41
2023-01-10T00:18:39.568Z,6.41
2023-01-10T00:19:39.916Z,6.41
2023-01-10T00:20:40.159Z,6.41
2023-01-10T00:21:40.503Z,6.41
2023-01-10T00:22:40.754Z,6.43
2023-01-10T00:23:41.052Z,6.45
2023-01-10T00:24:41.305Z,6.45
2023-01-10T00:25:41.617Z,6.45
2023-01-10T00:26:43.757Z,6.41
2023-01-10T00:27:42.238Z,6.41
2023-01-10T00:28:42.516Z,6.42
2023-01-10T00:29:42.798Z,6.42
2023-01-10T00:30:43.125Z,6.41
2023-01-10T00:31:43.427Z,6.41
2023-01-10T00:32:43.693Z,6.41
2023-01-10T00:33:43.993Z,6.41
2023-01-10T00:34:44.283Z,6.41
2023-01-10T00:35:44.583Z,6.41
2023-01-10T00:36:44.887Z,6.41
2023-01-10T00:37:45.135Z,6.43
2023-01-10T00:38:45.426Z,6.41
2023-01-10T00:39:45.755Z,6.41
2023-01-10T00:40:46.038Z,6.41
2023-01-10T00:41:46.312Z,6.42
2023-01-10T00:42:46.567Z,6.41
2023-01-10T00:43:46.867Z,6.42
2023-01-10T00:44:47.178Z,6.42
2023-01-10T00:45:47.429Z,6.45
2023-01-10T00:46:47.763Z,6.45
2023-01-10T00:47:48.006Z,6.45
2023-01-10T00:48:48.324Z,6.45
2023-01-10T00:49:48.596Z,6.43
2023-01-10T00:50:48.866Z,6.45
2023-01-10T00:51:49.163Z,6.41
2023-01-10T00:52:49.446Z,6.41
2023-01-10T00:53:49.686Z,6.45
2023-01-10T00:54:49.980Z,6.41
2023-01-10T00:55:50.305Z,6.42
2023-01-10T00:56:50.566Z,6.42
2023-01-10T00:57:50.840Z,6.41
2023-01-10T00:58:51.105Z,6.41
2023-01-10T00:59:51.396Z,6.41
2023-01-10T01:00:51.764Z,6.41
2023-01-10T01:01:52.161Z,6.42
2023-01-10T01:02:52.359Z,6.42
2023-01-10T01:03:52.607Z,6.42
2023-01-10T01:04:52.929Z,6.42
2023-01-10T01:05:53.201Z,6.43
2023-01-10T01:06:53.533Z,6.43
2023-01-10T01:07:53.797Z,6.49
2023-01-10T01:08:54.086Z,6.49
2023-01-10T01:09:54.387Z,6.49
2023-01-10T01:10:54.712Z,6.49
2023-01-10T01:11:54.988Z,6.49
2023-01-10T01:12:55.277Z,6.51
2023-01-10T01:13:55.550Z,6.51
2023-01-10T01:14:55.832Z,6.49
2023-01-10T01:15:56.136Z,6.49
2023-01-10T01:16:56.431Z,6.49
2023-01-10T01:17:56.707Z,6.49
2023-01-10T01:18:56.970Z,6.49
2023-01-10T01:19:57.237Z,6.49
2023-01-10T01:20:57.546Z,6.49
2023-01-10T01:21:57.895Z,6.49
2023-01-10T01:22:58.148Z,6.49
2023-01-10T01:23:58.444Z,6.49
2023-01-10T01:24:58.729Z,6.49
2023-01-10T01:25:59.029Z,6.49
2023-01-10T01:26:59.372Z,6.49
2023-01-10T01:27:59.652Z,6.49
2023-01-10T01:28:59.896Z,6.45
2023-01-10T01:30:00.219Z,6.45
2023-01-10T01:31:00.510Z,6.46
2023-01-10T01:32:00.870Z,6.46
2023-01-10T01:33:01.063Z,6.49
2023-01-10T01:34:01.357Z,6.49
2023-01-10T01:35:01.649Z,6.49
2023-01-10T01:36:01.948Z,6.48
2023-01-10T01:37:02.236Z,6.49
2023-01-10T01:38:02.544Z,6.46
2023-01-10T01:39:02.862Z,6.49
2023-01-10T01:40:03.118Z,6.49
2023-01-10T01:41:03.423Z,6.49
2023-01-10T01:42:03.743Z,6.49
2023-01-10T01:43:03.997Z,6.49
2023-01-10T01:44:04.279Z,6.51
2023-01-10T01:45:04.604Z,6.49
2023-01-10T01:46:04.873Z,6.49
2023-01-10T01:47:05.166Z,6.49
2023-01-10T01:48:05.450Z,6.49
2023-01-10T01:49:05.746Z,6.49
2023-01-10T01:50:06.078Z,6.41
2023-01-10T01:51:06.337Z,6.41
2023-01-10T01:52:06.628Z,6.41
2023-01-10T01:53:06.918Z,6.41
2023-01-10T01:54:07.212Z,6.43
2023-01-10T01:55:07.526Z,6.46
2023-01-10T01:56:07.852Z,6.41
2023-01-10T01:57:08.141Z,6.46
2023-01-10T01:58:08.406Z,6.46
2023-01-10T01:59:08.676Z,6.45
2023-01-10T02:00:08.993Z,6.46
2023-01-10T02:01:09.360Z,6.45
2023-01-10T02:02:09.675Z,6.41
2023-01-10T02:03:10.020Z,6.43
2023-01-10T02:04:10.232Z,6.41
2023-01-10T02:05:10.526Z,6.42
2023-01-10T02:06:10.801Z,6.41
2023-01-10T02:07:11.093Z,6.41
2023-01-10T02:08:11.347Z,6.41
2023-01-10T02:09:11.635Z,6.85
2023-01-10T02:10:11.930Z,6.41
2023-01-10T02:11:12.233Z,6.83
2023-01-10T02:12:12.538Z,6.81
2023-01-10T02:13:12.796Z,6.81
2023-01-10T02:14:13.079Z,6.76
2023-01-10T02:15:13.357Z,6.81
2023-01-10T02:16:13.742Z,6.81
2023-01-10T02:17:13.945Z,6.81
2023-01-10T02:18:14.223Z,6.83
2023-01-10T02:19:14.467Z,6.83
2023-01-10T02:20:14.747Z,6.83
2023-01-10T02:21:15.036Z,6.83
2023-01-10T02:22:15.371Z,6.83
2023-01-10T02:23:15.618Z,6.83
2023-01-10T02:24:15.897Z,6.81
2023-01-10T02:25:16.189Z,6.83
2023-01-10T02:26:16.483Z,6.82
2023-01-10T02:27:16.811Z,6.81
2023-01-10T02:28:19.614Z,6.83
2023-01-10T02:29:17.306Z,6.83
2023-01-10T02:30:17.578Z,6.83
2023-01-10T02:31:17.878Z,6.84
2023-01-10T02:32:23.504Z,6.83
2023-01-10T02:33:19.428Z,6.83
2023-01-10T02:34:18.751Z,6.83
2023-01-10T02:35:19.066Z,6.76
2023-01-10T02:36:19.306Z,6.81
2023-01-10T02:37:19.618Z,6.81
2023-01-10T02:38:19.893Z,6.81
2023-01-10T02:39:20.194Z,6.75
2023-01-10T02:40:20.495Z,6.75
2023-01-10T02:41:20.767Z,6.73
2023-01-10T02:42:21.125Z,6.73
2023-01-10T02:43:21.375Z,6.73
2023-01-10T02:44:21.628Z,6.77
2023-01-10T02:45:21.942Z,6.77
2023-01-10T02:46:22.283Z,6.75
2023-01-10T02:47:22.590Z,6.73
2023-01-10T02:48:22.862Z,6.75
2023-01-10T02:49:23.147Z,6.73
2023-01-10T02:50:23.428Z,6.75
2023-01-10T02:51:23.663Z,6.79
2023-01-10T02:52:24.009Z,6.79
2023-01-10T02:53:24.241Z,6.77
2023-01-10T02:54:24.528Z,6.76
2023-01-10T02:55:24.827Z,6.76
2023-01-10T02:56:25.136Z,6.73
2023-01-10T02:57:25.415Z,6.53
2023-01-10T02:58:25.672Z,6.53
2023-01-10T02:59:25.985Z,6.51
2023-01-10T03:00:26.273Z,6.49
2023-01-10T03:01:26.701Z,6.50
2023-01-10T03:02:26.872Z,6.50
2023-01-10T03:03:27.146Z,6.49
2023-01-10T03:04:27.461Z,6.41
2023-01-10T03:05:27.755Z,6.49
2023-01-10T03:06:28.025Z,6.41
2023-01-10T03:07:28.368Z,6.45
2023-01-10T03:08:28.645Z,6.45
2023-01-10T03:09:28.880Z,6.43
2023-01-10T03:10:29.181Z,6.41
2023-01-10T03:11:29.477Z,6.42
2023-01-10T03:12:29.824Z,6.41
2023-01-10T03:13:30.104Z,6.42
2023-01-10T03:14:30.375Z,6.58
2023-01-10T03:15:30.655Z,6.41
2023-01-10T03:16:30.929Z,6.56
2023-01-10T03:17:31.214Z,6.58
2023-01-10T03:18:31.495Z,6.54
2023-01-10T03:19:31.732Z,6.54
2023-01-10T03:20:32.062Z,6.54
2023-01-10T03:21:32.345Z,6.58
2023-01-10T03:22:32.639Z,6.41
2023-01-10T03:23:32.938Z,6.58
2023-01-10T03:24:33.264Z,6.41
2023-01-10T03:25:33.500Z,6.42
2023-01-10T03:26:33.808Z,6.41
2023-01-10T03:27:34.110Z,6.42
2023-01-10T03:28:34.396Z,6.41
2023-01-10T03:29:34.701Z,6.41
2023-01-10T03:30:34.951Z,6.41
2023-01-10T03:31:35.271Z,6.41
2023-01-10T03:32:35.603Z,6.41
2023-01-10T03:33:35.880Z,6.41
2023-01-10T03:34:36.185Z,6.41
2023-01-10T03:35:36.440Z,6.41
2023-01-10T03:36:36.735Z,6.41
2023-01-10T03:37:37.064Z,6.41
2023-01-10T03:38:37.350Z,6.56
2023-01-10T03:39:37.577Z,6.54
2023-01-10T03:40:37.904Z,6.54
2023-01-10T03:41:38.183Z,6.54
2023-01-10T03:42:38.479Z,6.49
2023-01-10T03:43:38.748Z,6.50
2023-01-10T03:44:38.989Z,6.41
2023-01-10T03:45:39.288Z,6.41
2023-01-10T03:46:39.653Z,3.99
2023-01-10T03:47:39.910Z,3.88
2023-01-10T03:48:40.197Z,3.83
2023-01-10T03:49:40.470Z,3.83
2023-01-10T03:50:40.789Z,3.87
2023-01-10T03:51:41.054Z,3.83
2023-01-10T03:52:41.309Z,3.57
2023-01-10T03:53:41.628Z,3.51
2023-01-10T03:54:41.920Z,3.51
2023-01-10T03:55:42.237Z,3.51
2023-01-10T03:56:42.537Z,3.39
2023-01-10T03:57:42.881Z,3.39
2023-01-10T03:58:43.132Z,3.40
2023-01-10T03:59:43.411Z,3.39
2023-01-10T04:00:43.827Z,3.39
2023-01-10T04:01:44.064Z,3.52
2023-01-10T04:02:44.240Z,3.51
2023-01-10T04:03:44.536Z,3.51
2023-01-10T04:04:44.800Z,3.51
2023-01-10T04:05:45.059Z,3.52
2023-01-10T04:06:45.368Z,3.52
2023-01-10T04:07:45.690Z,3.52
2023-01-10T04:08:45.940Z,3.55
2023-01-10T04:09:46.279Z,3.57
2023-01-10T04:10:46.510Z,3.55
2023-01-10T04:11:46.816Z,3.51
2023-01-10T04:12:47.142Z,3.57
2023-01-10T04:13:47.397Z,3.57
2023-01-10T04:14:47.725Z,3.51
2023-01-10T04:15:47.976Z,3.53
2023-01-10T04:16:48.285Z,3.52
2023-01-10T04:17:48.596Z,3.39
2023-01-10T04:18:48.854Z,3.34
2023-01-10T04:19:49.173Z,3.27
2023-01-10T04:20:52.072Z,3.22
2023-01-10T04:21:49.688Z,3.26
2023-01-10T04:22:49.992Z,3.20
2023-01-10T04:23:50.305Z,3.21
2023-01-10T04:24:50.596Z,3.18
2023-01-10T04:25:50.853Z,3.21
2023-01-10T04:26:51.176Z,3.18
2023-01-10T04:27:51.440Z,3.18
2023-01-10T04:28:51.698Z,3.22
2023-01-10T04:29:52.010Z,3.18
2023-01-10T04:30:52.314Z,2.78
2023-01-10T04:31:52.640Z,2.74
2023-01-10T04:32:52.884Z,2.72
2023-01-10T04:33:53.169Z,2.70
2023-01-10T04:34:53.497Z,2.60
2023-01-10T04:35:53.759Z,2.54
2023-01-10T04:36:54.054Z,2.56
2023-01-10T04:37:54.376Z,2.56
2023-01-10T04:38:54.646Z,2.58
2023-01-10T04:39:54.910Z,2.54
2023-01-10T04:40:55.179Z,2.55
2023-01-10T04:41:55.513Z,2.55
2023-01-10T04:42:55.785Z,2.94
2023-01-10T04:43:56.028Z,2.90
2023-01-10T04:44:56.329Z,2.88
2023-01-10T04:45:56.669Z,2.86
2023-01-10T04:46:56.916Z,2.77
2023-01-10T04:47:57.216Z,2.75
2023-01-10T04:48:57.450Z,2.70
2023-01-10T04:49:57.728Z,2.72
2023-01-10T04:50:58.020Z,2.70
2023-01-10T04:51:58.338Z,2.72
2023-01-10T04:52:58.661Z,2.63
2023-01-10T04:53:58.898Z,2.70
2023-01-10T04:54:59.228Z,2.70
2023-01-10T04:55:59.478Z,2.70
2023-01-10T04:56:59.781Z,2.70
2023-01-10T04:58:00.115Z,2.72
2023-01-10T04:59:00.363Z,2.70
2023-01-10T05:00:00.619Z,2.70
2023-01-10T05:01:01.015Z,2.70
2023-01-10T05:02:01.307Z,2.70
2023-01-10T05:03:01.605Z,2.70
2023-01-10T05:04:01.759Z,2.70
2023-01-10T05:05:02.077Z,2.73
2023-01-10T05:06:02.414Z,2.72
2023-01-10T05:07:02.707Z,2.73
2023-01-10T05:08:02.989Z,2.70
2023-01-10T05:09:03.240Z,2.74
2023-01-10T05:10:03.670Z,2.77
2023-01-10T05:11:03.809Z,2.86
2023-01-10T05:12:04.121Z,2.88
2023-01-10T05:13:04.433Z,2.87
2023-01-10T05:14:04.739Z,2.90
2023-01-10T05:15:04.977Z,2.88
2023-01-10T05:16:05.311Z,2.86
2023-01-10T05:17:05.598Z,2.88
2023-01-10T05:18:05.954Z,2.90
2023-01-10T05:19:06.234Z,2.90
2023-01-10T05:20:06.566Z,2.90
2023-01-10T05:21:06.861Z,2.55
2023-01-10T05:22:07.134Z,2.86
2023-01-10T05:23:07.461Z,2.83
2023-01-10T05:24:07.754Z,2.54
2023-01-10T05:25:08.023Z,2.80
2023-01-10T05:26:08.344Z,2.78
2023-01-10T05:27:08.651Z,2.78
2023-01-10T05:28:09.016Z,2.78
2023-01-10T05:29:09.298Z,2.78
2023-01-10T05:30:09.558Z,2.72
2023-01-10T05:31:09.861Z,2.73
2023-01-10T05:32:10.180Z,2.73
2023-01-10T05:33:10.534Z,2.70
2023-01-10T05:34:10.794Z,2.73
2023-01-10T05:35:11.143Z,2.70
2023-01-10T05:36:11.405Z,2.70
2023-01-10T05:37:11.698Z,2.77
2023-01-10T05:38:12.055Z,2.70
2023-01-10T05:39:12.317Z,2.74
2023-01-10T05:40:12.624Z,2.73
2023-01-10T05:41:12.938Z,2.90
2023-01-10T05:42:13.238Z,2.86
2023-01-10T05:43:13.561Z,2.89
2023-01-10T05:44:14.929Z,2.94
2023-01-10T05:45:14.175Z,2.97
2023-01-10T05:46:14.514Z,2.95
2023-01-10T05:47:14.780Z,3.08
2023-01-10T05:48:15.072Z,2.55
2023-01-10T05:49:15.356Z,2.54
2023-01-10T05:50:15.641Z,2.56
2023-01-10T05:51:15.928Z,2.58
2023-01-10T05:52:16.207Z,2.62
2023-01-10T05:53:16.535Z,3.18
2023-01-10T05:54:17.015Z,3.20
2023-01-10T05:55:17.118Z,3.23
2023-01-10T05:56:17.497Z,3.18
2023-01-10T05:57:17.778Z,3.18
2023-01-10T05:58:18.082Z,3.18
2023-01-10T05:59:28.032Z,3.34
2023-01-10T06:00:19.675Z,3.34
2023-01-10T06:01:18.976Z,3.34
2023-01-10T06:02:19.213Z,3.34
2023-01-10T06:03:19.485Z,3.34
2023-01-10T06:04:19.641Z,3.43
2023-01-10T06:05:20.030Z,3.34
2023-01-10T06:06:20.179Z,3.34
2023-01-10T06:07:20.478Z,3.37
2023-01-10T06:08:20.871Z,3.34
2023-01-10T06:09:21.131Z,3.22
2023-01-10T06:10:21.490Z,3.19
2023-01-10T06:11:21.734Z,3.18
2023-01-10T06:12:22.048Z,3.22
2023-01-10T06:13:22.406Z,3.19
2023-01-10T06:14:22.708Z,2.64
2023-01-10T06:15:22.993Z,2.62
2023-01-10T06:16:23.424Z,2.55
2023-01-10T06:17:23.570Z,2.54
2023-01-10T06:18:24.009Z,2.54
2023-01-10T06:19:24.191Z,2.54
2023-01-10T06:20:24.443Z,3.08
2023-01-10T06:21:24.791Z,3.06
2023-01-10T06:22:25.050Z,3.04
2023-01-10T06:23:25.384Z,3.06
2023-01-10T06:24:25.678Z,3.08
2023-01-10T06:25:25.942Z,2.54
2023-01-10T06:26:26.260Z,2.54
2023-01-10T06:27:26.581Z,2.56
2023-01-10T06:28:26.962Z,3.19
2023-01-10T06:29:27.131Z,3.23
2023-01-10T06:30:27.465Z,3.24
2023-01-10T06:31:27.764Z,3.26
2023-01-10T06:32:28.024Z,3.26
2023-01-10T06:33:28.350Z,3.31
2023-01-10T06:34:28.599Z,3.19
2023-01-10T06:35:28.928Z,3.20
2023-01-10T06:36:29.220Z,3.20
2023-01-10T06:37:29.572Z,3.35
2023-01-10T06:38:29.857Z,3.39
2023-01-10T06:39:30.146Z,3.39
2023-01-10T06:40:30.439Z,3.35
2023-01-10T06:41:30.726Z,3.39
2023-01-10T06:42:31.035Z,3.43
2023-01-10T06:43:31.330Z,3.45
2023-01-10T06:44:31.620Z,3.48
2023-01-10T06:45:31.931Z,3.19
2023-01-10T06:46:32.207Z,3.51
2023-01-10T06:47:32.523Z,3.20
2023-01-10T06:48:32.848Z,3.51
2023-01-10T06:49:33.124Z,3.53
2023-01-10T06:50:33.431Z,3.52
2023-01-10T06:51:33.768Z,3.51
2023-01-10T06:52:34.099Z,3.52
2023-01-10T06:53:34.410Z,3.53
2023-01-10T06:54:34.708Z,3.51
2023-01-10T06:55:34.975Z,3.52
2023-01-10T06:56:35.319Z,3.21
2023-01-10T06:57:35.717Z,3.20
2023-01-10T06:58:35.862Z,3.18
2023-01-10T06:59:36.129Z,3.47
2023-01-10T07:00:36.477Z,3.44
2023-01-10T07:01:36.899Z,3.36
2023-01-10T07:02:37.078Z,3.34
2023-01-10T07:03:37.377Z,3.34
2023-01-10T07:04:37.688Z,3.22
2023-01-10T07:05:37.976Z,3.19
2023-01-10T07:06:38.301Z,3.18
2023-01-10T07:07:38.627Z,3.24
2023-01-10T07:08:38.924Z,3.18
2023-01-10T07:09:39.224Z,2.62
2023-01-10T07:10:39.525Z,2.56
2023-01-10T07:11:39.849Z,2.56
2023-01-10T07:12:40.145Z,3.08
2023-01-10T07:13:40.485Z,3.08
2023-01-10T07:14:40.754Z,3.06
2023-01-10T07:15:41.066Z,2.94
2023-01-10T07:16:41.372Z,2.87
2023-01-10T07:17:41.680Z,2.86
2023-01-10T07:18:42.036Z,2.87
2023-01-10T07:19:42.308Z,2.86
2023-01-10T07:20:42.623Z,2.86
2023-01-10T07:21:42.935Z,2.67
2023-01-10T07:22:43.269Z,2.66
2023-01-10T07:23:43.533Z,2.66
2023-01-10T07:24:43.878Z,2.62
2023-01-10T07:25:44.158Z,2.62
2023-01-10T07:26:44.475Z,2.54
2023-01-10T07:27:44.804Z,2.54
2023-01-10T07:28:45.124Z,2.58
2023-01-10T07:29:45.410Z,2.56
2023-01-10T07:30:45.739Z,2.56
2023-01-10T07:31:46.021Z,2.55
2023-01-10T07:32:46.360Z,2.64
2023-01-10T07:33:46.657Z,2.60
2023-01-10T07:34:46.939Z,2.58
2023-01-10T07:35:47.286Z,2.59
2023-01-10T07:36:47.576Z,2.58
2023-01-10T07:37:47.850Z,2.54
2023-01-10T07:38:48.205Z,1.51
2023-01-10T07:39:48.491Z,1.52
2023-01-10T07:40:48.796Z,1.49
2023-01-10T07:41:49.109Z,1.49
2023-01-10T07:42:49.412Z,1.58
2023-01-10T07:43:49.757Z,1.57
2023-01-10T07:44:50.066Z,1.63
2023-01-10T07:45:50.402Z,2.54
2023-01-10T07:46:50.692Z,2.54
2023-01-10T07:47:51.060Z,2.62
2023-01-10T07:48:51.374Z,2.54
2023-01-10T07:49:51.692Z,2.72
2023-01-10T07:50:51.979Z,2.70
2023-01-10T07:51:52.320Z,2.82
2023-01-10T07:52:52.631Z,2.54
2023-01-10T07:53:52.997Z,2.56
2023-01-10T07:54:53.317Z,2.62
2023-01-10T07:55:53.617Z,2.55
2023-01-10T07:56:53.889Z,2.73
2023-01-10T07:57:54.273Z,2.75
2023-01-10T07:58:54.611Z,3.18
2023-01-10T07:59:54.884Z,3.23
2023-01-10T08:00:55.224Z,3.20
2023-01-10T08:01:55.557Z,3.23
2023-01-10T08:02:55.937Z,3.18
2023-01-10T08:03:56.163Z,3.22
2023-01-10T08:04:56.440Z,3.34
2023-01-10T08:05:56.757Z,3.39
2023-01-10T08:06:57.043Z,3.46
2023-01-10T08:07:57.373Z,3.54
2023-01-10T08:08:57.697Z,3.87
2023-01-10T08:09:58.002Z,3.83
2023-01-10T08:10:58.282Z,3.85
2023-01-10T08:11:58.615Z,3.93
2023-01-10T08:13:03.865Z,3.84
2023-01-10T08:14:00.259Z,3.85
2023-01-10T08:14:59.501Z,3.99
2023-01-10T08:15:59.763Z,3.99
2023-01-10T08:17:00.075Z,4.15
2023-01-10T08:18:00.427Z,4.18
2023-01-10T08:19:00.758Z,4.18
2023-01-10T08:20:01.073Z,4.26
2023-01-10T08:21:01.371Z,4.27
2023-01-10T08:22:01.711Z,4.29
2023-01-10T08:23:02.081Z,4.32
2023-01-10T08:24:02.400Z,4.33
2023-01-10T08:25:02.704Z,4.34
2023-01-10T08:26:03.056Z,6.41
2023-01-10T08:27:03.411Z,6.43
2023-01-10T08:28:03.673Z,6.43
2023-01-10T08:29:03.975Z,4.41
2023-01-10T08:30:04.273Z,4.40
2023-01-10T08:31:04.662Z,4.40
2023-01-10T08:32:04.972Z,4.37
2023-01-10T08:33:05.376Z,4.34
2023-01-10T08:34:05.571Z,4.31
2023-01-10T08:35:05.890Z,4.36
2023-01-10T08:36:06.181Z,4.39
2023-01-10T08:37:06.558Z,4.44
2023-01-10T08:38:06.865Z,6.41
2023-01-10T08:39:07.246Z,6.41
2023-01-10T08:40:07.574Z,6.49
2023-01-10T08:41:07.862Z,6.43
2023-01-10T08:42:08.212Z,7.05
2023-01-10T08:43:08.561Z,7.21
2023-01-10T08:44:08.926Z,7.07
2023-01-10T08:45:09.243Z,7.05
2023-01-10T08:46:09.667Z,7.27
2023-01-10T08:47:09.829Z,7.17
2023-01-10T08:48:10.222Z,7.07
2023-01-10T08:49:10.536Z,6.70
2023-01-10T08:50:10.870Z,6.73
2023-01-10T08:51:11.157Z,6.74
2023-01-10T08:52:11.514Z,6.73
2023-01-10T08:53:11.823Z,6.47
2023-01-10T08:54:12.208Z,6.72
2023-01-10T08:55:12.520Z,6.41
2023-01-10T08:56:12.771Z,6.75
2023-01-10T08:57:13.098Z,6.75
2023-01-10T08:58:13.387Z,6.73
2023-01-10T08:59:13.787Z,7.05
2023-01-10T09:00:14.779Z,7.05
2023-01-10T09:01:14.330Z,7.13
2023-01-10T09:02:14.686Z,7.06
2023-01-10T09:03:14.978Z,7.07
2023-01-10T09:04:15.214Z,7.06
2023-01-10T09:05:31.436Z,7.11
2023-01-10T09:06:16.846Z,7.07
2023-01-10T09:07:16.088Z,7.21
2023-01-10T09:08:16.427Z,7.21
2023-01-10T09:09:16.810Z,7.08
2023-01-10T09:10:17.147Z,7.11
2023-01-10T09:11:17.462Z,7.12
2023-01-10T09:12:17.677Z,7.23
2023-01-10T09:13:17.911Z,7.24
2023-01-10T09:14:18.262Z,7.11
2023-01-10T09:15:18.616Z,7.13
2023-01-10T09:16:18.990Z,7.05
2023-01-10T09:17:19.189Z,7.08
2023-01-10T09:18:21.331Z,7.05
2023-01-10T09:19:19.860Z,7.13
2023-01-10T09:20:20.167Z,7.13
2023-01-10T09:21:20.496Z,7.13
2023-01-10T09:22:20.812Z,6.42
2023-01-10T09:23:21.116Z,6.41
2023-01-10T09:24:21.492Z,6.46
2023-01-10T09:25:21.794Z,6.45
2023-01-10T09:26:22.094Z,6.46
2023-01-10T09:27:22.345Z,6.41
2023-01-10T09:28:22.671Z,6.44
2023-01-10T09:29:23.009Z,6.41
2023-01-10T09:30:23.343Z,6.43
2023-01-10T09:31:23.705Z,6.43
2023-01-10T09:32:23.863Z,6.41
2023-01-10T09:33:25.282Z,6.45
2023-01-10T09:34:24.458Z,6.49
2023-01-10T09:35:24.786Z,6.57
2023-01-10T09:36:25.071Z,6.57
2023-01-10T09:37:25.430Z,6.42
2023-01-10T09:38:25.781Z,6.42
2023-01-10T09:39:26.082Z,6.42
2023-01-10T09:40:26.300Z,6.45
2023-01-10T09:41:26.680Z,6.45
2023-01-10T09:42:26.987Z,6.73
2023-01-10T09:43:27.362Z,6.78
2023-01-10T09:44:27.666Z,6.81
2023-01-10T09:45:28.011Z,6.81
2023-01-10T09:46:28.398Z,6.73
2023-01-10T09:47:28.608Z,6.93
2023-01-10T09:48:28.980Z,6.90
2023-01-10T09:49:29.319Z,7.01
2023-01-10T09:50:29.512Z,7.71
2023-01-10T09:51:29.902Z,7.72
2023-01-10T09:52:30.206Z,7.76
2023-01-10T09:53:30.513Z,7.78
2023-01-10T09:54:30.881Z,7.71
2023-01-10T09:55:32.338Z,7.78
2023-01-10T09:56:31.513Z,7.70
2023-01-10T09:57:31.742Z,7.86
2023-01-10T09:58:32.006Z,7.79
2023-01-10T09:59:32.213Z,7.86
2023-01-10T10:00:32.523Z,7.70
2023-01-10T10:01:32.889Z,7.70
2023-01-10T10:02:33.199Z,7.74
2023-01-10T10:03:33.713Z,8.02
2023-01-10T10:04:33.837Z,7.82
2023-01-10T10:05:34.166Z,8.04
2023-01-10T10:06:34.384Z,8.04
2023-01-10T10:07:34.751Z,8.06
2023-01-10T10:08:35.024Z,8.08
2023-01-10T10:09:35.425Z,8.03
2023-01-10T10:10:35.772Z,8.02
2023-01-10T10:11:36.079Z,8.06
2023-01-10T10:12:36.362Z,8.10
2023-01-10T10:13:36.703Z,8.14
2023-01-10T10:14:36.955Z,1.25
2023-01-10T10:15:37.293Z,1.25
2023-01-10T10:16:37.624Z,1.26
2023-01-10T10:17:37.838Z,1.25
2023-01-10T10:18:38.142Z,1.27
2023-01-10T10:19:38.544Z,1.29
2023-01-10T10:20:38.732Z,1.41
2023-01-10T10:21:39.033Z,1.42
2023-01-10T10:22:39.270Z,1.49
2023-01-10T10:23:39.594Z,1.26
2023-01-10T10:24:39.960Z,1.36
2023-01-10T10:25:40.305Z,1.27
2023-01-10T10:26:40.597Z,1.25
2023-01-10T10:27:40.989Z,1.25
2023-01-10T10:28:53.589Z,1.41
2023-01-10T10:29:42.609Z,1.45
2023-01-10T10:30:41.833Z,1.47
2023-01-10T10:31:42.254Z,1.49
2023-01-10T10:32:42.455Z,1.60
2023-01-10T10:33:42.795Z,1.91
2023-01-10T10:34:43.016Z,1.98
2023-01-10T10:35:43.376Z,1.93
2023-01-10T10:36:43.715Z,2.06
2023-01-10T10:37:44.041Z,2.06
2023-01-10T10:38:44.284Z,2.17
2023-01-10T10:39:44.589Z,2.20
2023-01-10T10:40:44.877Z,1.25
2023-01-10T10:41:45.245Z,1.29
2023-01-10T10:42:45.551Z,1.27
2023-01-10T10:43:45.787Z,1.31
2023-01-10T10:44:46.162Z,1.27
2023-01-10T10:45:46.385Z,1.26
2023-01-10T10:46:46.598Z,1.41
2023-01-10T10:47:46.912Z,1.49
2023-01-10T10:50:14.289Z,1.54
2023-01-10T10:50:25.248Z,1.25
2023-01-10T10:51:19.476Z,1.25
2023-01-10T10:52:19.806Z,1.28
2023-01-10T10:53:20.090Z,1.32
2023-01-10T10:54:20.633Z,1.25
2023-01-10T10:55:20.707Z,1.25
2023-01-10T10:56:21.035Z,1.36
2023-01-10T10:57:21.370Z,1.37
2023-01-10T10:58:21.699Z,1.40
2023-01-10T10:59:21.984Z,1.41
2023-01-10T11:00:22.319Z,1.46
2023-01-10T11:01:25.456Z,1.51
2023-01-10T11:02:22.948Z,1.50
2023-01-10T11:03:23.287Z,1.43
2023-01-10T11:04:23.735Z,1.43
2023-01-10T11:05:23.937Z,1.57
2023-01-10T11:06:24.236Z,1.57
2023-01-10T11:07:24.604Z,1.60
2023-01-10T11:08:24.923Z,1.25
2023-01-10T11:09:25.127Z,1.28
2023-01-10T11:10:25.496Z,1.33
2023-01-10T11:11:25.832Z,1.25
2023-01-10T11:12:26.166Z,1.29
2023-01-10T11:13:26.513Z,1.31
2023-01-10T11:14:26.823Z,1.34
2023-01-10T11:15:27.116Z,1.37
2023-01-10T11:16:27.525Z,1.43
2023-01-10T11:17:27.845Z,1.89
2023-01-10T11:18:28.144Z,1.91
2023-01-10T11:19:28.463Z,1.93
2023-01-10T11:20:28.794Z,1.99
2023-01-10T11:21:29.091Z,2.02
2023-01-10T11:22:29.427Z,2.04
2023-01-10T11:23:29.796Z,2.08
2023-01-10T11:24:30.122Z,1.90
2023-01-10T11:25:30.483Z,2.10
2023-01-10T11:26:30.687Z,1.90
2023-01-10T11:27:30.964Z,1.89
2023-01-10T11:28:31.150Z,1.93
2023-01-10T11:29:31.468Z,1.93
2023-01-10T11:30:31.695Z,2.20
2023-01-10T11:31:32.039Z,2.21
2023-01-10T11:32:32.354Z,2.23
2023-01-10T11:33:32.683Z,1.89
2023-01-10T11:34:33.013Z,1.89
2023-01-10T11:35:33.333Z,1.91
2023-01-10T11:36:33.645Z,2.22
2023-01-10T11:37:33.895Z,2.27
2023-01-10T11:38:34.188Z,2.27
2023-01-10T11:39:34.526Z,2.26
2023-01-10T11:40:34.905Z,2.22
2023-01-10T11:41:35.231Z,2.26
2023-01-10T11:42:35.639Z,2.26
2023-01-10T11:43:35.851Z,1.93
2023-01-10T11:44:36.205Z,1.90
2023-01-10T11:45:36.587Z,2.09
2023-01-10T11:46:36.795Z,2.06
2023-01-10T11:47:41.619Z,2.08
2023-01-10T11:49:03.598Z,1.98
2023-01-10T11:49:38.845Z,1.98
2023-01-10T11:50:38.123Z,1.89
2023-01-10T11:51:38.468Z,1.93
2023-01-10T11:52:38.795Z,1.92
2023-01-10T11:53:39.111Z,1.89
2023-01-10T11:54:39.422Z,1.89
2023-01-10T11:55:39.677Z,1.89
2023-01-10T11:56:39.923Z,1.90
2023-01-10T11:57:40.120Z,1.89
2023-01-10T11:58:40.436Z,1.91
2023-01-10T11:59:40.745Z,1.30
2023-01-10T12:00:41.096Z,1.89
2023-01-10T12:01:41.269Z,1.89
2023-01-10T12:02:41.693Z,1.25
2023-01-10T12:03:41.883Z,1.89
2023-01-10T12:04:42.177Z,1.90
2023-01-10T12:05:42.440Z,1.90
2023-01-10T12:06:42.775Z,1.93
2023-01-10T12:07:43.133Z,1.94
2023-01-10T12:08:43.343Z,1.95
2023-01-10T12:09:43.665Z,1.89
2023-01-10T12:10:43.989Z,1.90
2023-01-10T12:11:44.296Z,1.93
2023-01-10T12:12:44.586Z,2.02
2023-01-10T12:13:44.941Z,1.98
2023-01-10T12:14:45.242Z,1.94
2023-01-10T12:15:45.637Z,1.90
2023-01-10T12:16:47.550Z,1.93
2023-01-10T12:17:46.090Z,1.92
2023-01-10T12:18:46.372Z,1.98
2023-01-10T12:19:46.688Z,1.98
2023-01-10T12:20:46.993Z,1.99
2023-01-10T12:21:47.338Z,2.02
2023-01-10T12:22:47.620Z,1.99
2023-01-10T12:23:48.017Z,1.90
2023-01-10T12:24:48.359Z,1.90
2023-01-10T12:25:50.036Z,1.93
2023-01-10T12:26:48.839Z,1.98
2023-01-10T12:27:49.149Z,1.93
2023-01-10T12:28:49.455Z,1.94
2023-01-10T12:29:49.839Z,1.89
2023-01-10T12:30:50.309Z,1.90
2023-01-10T12:31:50.470Z,1.29
2023-01-10T12:32:50.785Z,1.29
2023-01-10T12:33:51.108Z,1.26
2023-01-10T12:34:51.428Z,1.27
2023-01-10T12:35:51.765Z,1.26
2023-01-10T12:36:52.099Z,1.25
2023-01-10T12:37:52.430Z,1.26
2023-01-10T12:38:52.763Z,1.69
2023-01-10T12:39:53.075Z,1.65
2023-01-10T12:40:53.438Z,1.60
2023-01-10T12:41:53.769Z,1.57
2023-01-10T12:42:54.087Z,1.57
2023-01-10T12:43:54.427Z,1.39
2023-01-10T12:44:54.801Z,1.36
2023-01-10T12:45:55.062Z,1.35
2023-01-10T12:47:13.176Z,1.33
2023-01-10T12:47:56.521Z,1.29
2023-01-10T12:48:55.750Z,1.25
2023-01-10T12:49:56.073Z,1.27
2023-01-10T12:50:56.417Z,1.34
2023-01-10T12:51:56.711Z,1.37
2023-01-10T12:52:57.086Z,1.39
2023-01-10T12:53:57.377Z,1.39
2023-01-10T12:54:57.757Z,1.25
2023-01-10T12:55:58.113Z,1.29
2023-01-10T12:56:58.324Z,1.29
2023-01-10T12:57:58.631Z,1.33
2023-01-10T12:58:59.025Z,1.34
2023-01-10T12:59:59.355Z,1.36
2023-01-10T13:00:59.793Z,1.42
2023-01-10T13:02:00.136Z,1.43
2023-01-10T13:03:00.565Z,1.31
2023-01-10T13:04:00.646Z,1.27
2023-01-10T13:05:00.975Z,1.39
2023-01-10T13:06:01.316Z,1.37
2023-01-10T13:07:01.641Z,1.37
2023-01-10T13:08:01.859Z,1.33
2023-01-10T13:09:02.197Z,1.33
2023-01-10T13:10:02.493Z,1.27
2023-01-10T13:11:02.812Z,1.25
2023-01-10T13:12:03.260Z,1.33
2023-01-10T13:13:03.436Z,1.33
2023-01-10T13:14:03.771Z,1.25
2023-01-10T13:15:04.134Z,1.26
2023-01-10T13:16:04.514Z,1.29
2023-01-10T13:17:04.735Z,1.28
2023-01-10T13:18:05.051Z,1.25
2023-01-10T13:19:05.307Z,1.27
2023-01-10T13:20:05.631Z,1.25
2023-01-10T13:21:06.065Z,1.26
2023-01-10T13:22:06.274Z,1.25
2023-01-10T13:23:06.628Z,1.25